sensor_id;sensor_type;location;lat;lon;timestamp;temperature;humidity
21592;DHT22;10958;50.892;3.992;2023-02-28T00:01:27;2.50;99.90
21592;DHT22;10958;50.892;3.992;2023-02-28T00:03:56;2.50;99.90
21592;DHT22;10958;50.892;3.992;2023-02-28T00:06:21;2.40;99.90
21592;DHT22;10958;50.892;3.992;2023-02-28T00:08:47;2.20;99.90
21592;DHT22;10958;50.892;3.992;2023-02-28T00:11:14;2.30;99.90
21592;DHT22;10958;50.892;3.992;2023-02-28T00:13:44;2.30;99.90
21592;DHT22;10958;50.892;3.992;2023-02-28T00:16:15;2.30;99.90
21592;DHT22;10958;50.892;3.992;2023-02-28T00:18:41;2.40;99.90
21592;DHT22;10958;50.892;3.992;2023-02-28T00:21:07;2.30;99.90
21592;DHT22;10958;50.892;3.992;2023-02-28T00:23:33;2.50;99.90
21592;DHT22;10958;50.892;3.992;2023-02-28T00:25:59;2.40;99.90
21592;DHT22;10958;50.892;3.992;2023-02-28T00:28:25;2.40;99.90
21592;DHT22;10958;50.892;3.992;2023-02-28T00:30:53;2.30;99.90
21592;DHT22;10958;50.892;3.992;2023-02-28T00:33:19;2.30;99.90
21592;DHT22;10958;50.892;3.992;2023-02-28T00:35:47;2.30;99.90
21592;DHT22;10958;50.892;3.992;2023-02-28T00:38:14;2.40;99.90
21592;DHT22;10958;50.892;3.992;2023-02-28T00:40:40;2.50;99.90
21592;DHT22;10958;50.892;3.992;2023-02-28T00:43:07;2.20;99.90
21592;DHT22;10958;50.892;3.992;2023-02-28T00:45:35;2.20;99.90
21592;DHT22;10958;50.892;3.992;2023-02-28T00:48:00;2.30;99.90
21592;DHT22;10958;50.892;3.992;2023-02-28T00:50:28;2.40;99.90
21592;DHT22;10958;50.892;3.992;2023-02-28T00:52:54;2.40;99.90
21592;DHT22;10958;50.892;3.992;2023-02-28T00:55:20;2.30;99.90
21592;DHT22;10958;50.892;3.992;2023-02-28T00:57:46;2.30;99.90
21592;DHT22;10958;50.892;3.992;2023-02-28T01:00:12;2.20;99.90
21592;DHT22;10958;50.892;3.992;2023-02-28T01:02:38;2.20;99.90
21592;DHT22;10958;50.892;3.992;2023-02-28T01:05:04;2.20;99.90
21592;DHT22;10958;50.892;3.992;2023-02-28T01:07:30;1.90;99.90
21592;DHT22;10958;50.892;3.992;2023-02-28T01:09:55;1.80;99.90
21592;DHT22;10958;50.892;3.992;2023-02-28T01:12:21;1.80;99.90
21592;DHT22;10958;50.892;3.992;2023-02-28T01:14:47;1.90;99.90
21592;DHT22;10958;50.892;3.992;2023-02-28T01:17:12;2.00;99.90
21592;DHT22;10958;50.892;3.992;2023-02-28T01:19:38;2.00;99.90
21592;DHT22;10958;50.892;3.992;2023-02-28T01:22:04;1.90;99.90
21592;DHT22;10958;50.892;3.992;2023-02-28T01:24:30;2.00;99.90
21592;DHT22;10958;50.892;3.992;2023-02-28T01:26:56;2.10;99.90
21592;DHT22;10958;50.892;3.992;2023-02-28T01:29:25;2.20;99.90
21592;DHT22;10958;50.892;3.992;2023-02-28T01:31:51;2.30;99.90
21592;DHT22;10958;50.892;3.992;2023-02-28T01:34:17;2.40;99.90
21592;DHT22;10958;50.892;3.992;2023-02-28T01:36:44;2.30;99.90
21592;DHT22;10958;50.892;3.992;2023-02-28T01:39:11;2.30;99.90
21592;DHT22;10958;50.892;3.992;2023-02-28T01:41:38;2.40;99.90
21592;DHT22;10958;50.892;3.992;2023-02-28T01:44:55;2.20;99.90
21592;DHT22;10958;50.892;3.992;2023-02-28T01:46:53;2.20;99.90
21592;DHT22;10958;50.892;3.992;2023-02-28T01:49:18;2.20;99.90
21592;DHT22;10958;50.892;3.992;2023-02-28T01:51:55;2.30;99.90
21592;DHT22;10958;50.892;3.992;2023-02-28T01:54:30;2.20;99.90
21592;DHT22;10958;50.892;3.992;2023-02-28T01:57:16;2.10;99.90
21592;DHT22;10958;50.892;3.992;2023-02-28T01:59:47;2.20;99.90
21592;DHT22;10958;50.892;3.992;2023-02-28T02:02:17;2.20;99.90
21592;DHT22;10958;50.892;3.992;2023-02-28T02:04:59;2.20;99.90
21592;DHT22;10958;50.892;3.992;2023-02-28T02:07:30;2.20;99.90
21592;DHT22;10958;50.892;3.992;2023-02-28T02:10:04;2.10;99.90
21592;DHT22;10958;50.892;3.992;2023-02-28T02:12:42;2.10;99.90
21592;DHT22;10958;50.892;3.992;2023-02-28T02:15:34;2.20;99.90
21592;DHT22;10958;50.892;3.992;2023-02-28T02:31:56;2.30;99.90
21592;DHT22;10958;50.892;3.992;2023-02-28T02:34:51;2.10;99.90
21592;DHT22;10958;50.892;3.992;2023-02-28T02:40:25;1.70;99.90
21592;DHT22;10958;50.892;3.992;2023-02-28T02:45:39;1.90;99.90
21592;DHT22;10958;50.892;3.992;2023-02-28T02:48:09;1.90;99.90
21592;DHT22;10958;50.892;3.992;2023-02-28T02:50:42;1.90;99.90
21592;DHT22;10958;50.892;3.992;2023-02-28T02:53:10;2.00;99.90
21592;DHT22;10958;50.892;3.992;2023-02-28T02:55:40;2.00;99.90
21592;DHT22;10958;50.892;3.992;2023-02-28T02:58:10;2.10;99.90
21592;DHT22;10958;50.892;3.992;2023-02-28T03:00:41;1.70;99.90
21592;DHT22;10958;50.892;3.992;2023-02-28T03:03:09;1.40;99.90
21592;DHT22;10958;50.892;3.992;2023-02-28T03:05:46;1.60;99.90
21592;DHT22;10958;50.892;3.992;2023-02-28T03:08:12;1.80;99.90
21592;DHT22;10958;50.892;3.992;2023-02-28T03:10:49;1.80;99.90
21592;DHT22;10958;50.892;3.992;2023-02-28T03:21:23;1.90;99.90
21592;DHT22;10958;50.892;3.992;2023-02-28T03:24:22;1.70;99.90
21592;DHT22;10958;50.892;3.992;2023-02-28T03:26:58;1.90;99.90
21592;DHT22;10958;50.892;3.992;2023-02-28T03:29:40;1.70;99.90
21592;DHT22;10958;50.892;3.992;2023-02-28T03:32:16;1.50;99.90
21592;DHT22;10958;50.892;3.992;2023-02-28T03:34:56;1.30;99.90
21592;DHT22;10958;50.892;3.992;2023-02-28T03:37:25;1.40;99.90
21592;DHT22;10958;50.892;3.992;2023-02-28T03:40:00;1.50;99.90
21592;DHT22;10958;50.892;3.992;2023-02-28T03:42:31;1.30;99.90
21592;DHT22;10958;50.892;3.992;2023-02-28T03:45:02;1.30;99.90
21592;DHT22;10958;50.892;3.992;2023-02-28T03:47:39;1.30;99.90
21592;DHT22;10958;50.892;3.992;2023-02-28T03:50:39;1.50;99.90
21592;DHT22;10958;50.892;3.992;2023-02-28T03:55:39;1.70;99.90
21592;DHT22;10958;50.892;3.992;2023-02-28T03:58:22;1.40;99.90
21592;DHT22;10958;50.892;3.992;2023-02-28T04:00:57;1.40;99.90
21592;DHT22;10958;50.892;3.992;2023-02-28T04:03:23;1.40;99.90
21592;DHT22;10958;50.892;3.992;2023-02-28T04:05:53;1.40;99.90
21592;DHT22;10958;50.892;3.992;2023-02-28T04:08:22;1.20;99.90
21592;DHT22;10958;50.892;3.992;2023-02-28T04:11:16;1.30;99.90
21592;DHT22;10958;50.892;3.992;2023-02-28T04:13:40;1.30;99.90
21592;DHT22;10958;50.892;3.992;2023-02-28T04:16:09;1.30;99.90
21592;DHT22;10958;50.892;3.992;2023-02-28T04:18:38;1.30;99.90
21592;DHT22;10958;50.892;3.992;2023-02-28T04:21:07;1.20;99.90
21592;DHT22;10958;50.892;3.992;2023-02-28T04:23:33;1.20;99.90
21592;DHT22;10958;50.892;3.992;2023-02-28T04:26:01;1.30;99.90
21592;DHT22;10958;50.892;3.992;2023-02-28T04:28:27;1.40;99.90
21592;DHT22;10958;50.892;3.992;2023-02-28T04:30:59;1.40;99.90
21592;DHT22;10958;50.892;3.992;2023-02-28T04:33:26;1.50;99.90
21592;DHT22;10958;50.892;3.992;2023-02-28T04:36:08;1.70;99.90
21592;DHT22;10958;50.892;3.992;2023-02-28T04:38:38;1.80;99.90
21592;DHT22;10958;50.892;3.992;2023-02-28T04:41:09;1.60;99.90
21592;DHT22;10958;50.892;3.992;2023-02-28T04:43:35;1.70;99.90
21592;DHT22;10958;50.892;3.992;2023-02-28T04:46:02;1.80;99.90
21592;DHT22;10958;50.892;3.992;2023-02-28T04:48:29;1.80;99.90
21592;DHT22;10958;50.892;3.992;2023-02-28T04:51:00;1.70;99.90
21592;DHT22;10958;50.892;3.992;2023-02-28T04:53:27;1.70;99.90
21592;DHT22;10958;50.892;3.992;2023-02-28T04:55:54;1.50;99.90
21592;DHT22;10958;50.892;3.992;2023-02-28T04:58:20;1.40;99.90
21592;DHT22;10958;50.892;3.992;2023-02-28T05:00:52;1.30;99.90
21592;DHT22;10958;50.892;3.992;2023-02-28T05:03:18;1.50;99.90
21592;DHT22;10958;50.892;3.992;2023-02-28T05:05:43;1.50;99.90
21592;DHT22;10958;50.892;3.992;2023-02-28T05:08:12;1.50;99.90
21592;DHT22;10958;50.892;3.992;2023-02-28T05:10:37;1.60;99.90
21592;DHT22;10958;50.892;3.992;2023-02-28T05:13:03;1.80;99.90
21592;DHT22;10958;50.892;3.992;2023-02-28T05:15:28;1.90;99.90
21592;DHT22;10958;50.892;3.992;2023-02-28T05:17:54;1.90;99.90
21592;DHT22;10958;50.892;3.992;2023-02-28T05:20:20;1.80;99.90
21592;DHT22;10958;50.892;3.992;2023-02-28T05:22:46;1.60;99.90
21592;DHT22;10958;50.892;3.992;2023-02-28T05:25:16;1.70;99.90
21592;DHT22;10958;50.892;3.992;2023-02-28T05:27:42;1.70;99.90
21592;DHT22;10958;50.892;3.992;2023-02-28T05:30:08;1.80;99.90
21592;DHT22;10958;50.892;3.992;2023-02-28T05:32:37;1.90;99.90
21592;DHT22;10958;50.892;3.992;2023-02-28T05:35:05;1.90;99.90
21592;DHT22;10958;50.892;3.992;2023-02-28T05:37:31;1.90;99.90
21592;DHT22;10958;50.892;3.992;2023-02-28T05:39:57;2.00;99.90
21592;DHT22;10958;50.892;3.992;2023-02-28T05:42:25;2.00;99.90
21592;DHT22;10958;50.892;3.992;2023-02-28T05:44:50;1.90;99.90
21592;DHT22;10958;50.892;3.992;2023-02-28T05:47:19;1.80;99.90
21592;DHT22;10958;50.892;3.992;2023-02-28T05:49:45;1.80;99.90
21592;DHT22;10958;50.892;3.992;2023-02-28T05:52:11;2.00;99.90
21592;DHT22;10958;50.892;3.992;2023-02-28T05:54:37;1.90;99.90
21592;DHT22;10958;50.892;3.992;2023-02-28T05:57:05;2.00;99.90
21592;DHT22;10958;50.892;3.992;2023-02-28T05:59:31;2.00;99.90
21592;DHT22;10958;50.892;3.992;2023-02-28T06:01:58;2.10;99.90
21592;DHT22;10958;50.892;3.992;2023-02-28T06:04:23;2.00;99.90
21592;DHT22;10958;50.892;3.992;2023-02-28T06:06:50;2.00;99.90
21592;DHT22;10958;50.892;3.992;2023-02-28T06:09:17;2.00;99.90
21592;DHT22;10958;50.892;3.992;2023-02-28T06:11:43;2.30;99.90
21592;DHT22;10958;50.892;3.992;2023-02-28T06:14:18;2.40;99.90
21592;DHT22;10958;50.892;3.992;2023-02-28T06:16:44;2.30;99.90
21592;DHT22;10958;50.892;3.992;2023-02-28T06:19:10;2.20;99.90
21592;DHT22;10958;50.892;3.992;2023-02-28T06:21:36;2.00;99.90
21592;DHT22;10958;50.892;3.992;2023-02-28T06:24:03;1.90;99.90
21592;DHT22;10958;50.892;3.992;2023-02-28T06:26:29;2.00;99.90
21592;DHT22;10958;50.892;3.992;2023-02-28T06:28:56;2.20;99.90
21592;DHT22;10958;50.892;3.992;2023-02-28T06:31:22;2.40;99.90
21592;DHT22;10958;50.892;3.992;2023-02-28T06:33:49;2.50;99.90
21592;DHT22;10958;50.892;3.992;2023-02-28T06:36:16;2.40;99.90
21592;DHT22;10958;50.892;3.992;2023-02-28T06:38:42;2.30;99.90
21592;DHT22;10958;50.892;3.992;2023-02-28T06:41:09;2.60;99.90
21592;DHT22;10958;50.892;3.992;2023-02-28T06:43:38;2.70;99.90
21592;DHT22;10958;50.892;3.992;2023-02-28T06:46:06;2.70;99.90
21592;DHT22;10958;50.892;3.992;2023-02-28T06:48:32;2.60;99.90
21592;DHT22;10958;50.892;3.992;2023-02-28T06:51:03;2.70;99.90
21592;DHT22;10958;50.892;3.992;2023-02-28T06:53:29;2.60;99.90
21592;DHT22;10958;50.892;3.992;2023-02-28T06:55:55;2.80;99.90
21592;DHT22;10958;50.892;3.992;2023-02-28T06:58:20;2.70;99.90
21592;DHT22;10958;50.892;3.992;2023-02-28T07:00:51;2.80;99.90
21592;DHT22;10958;50.892;3.992;2023-02-28T07:03:20;2.80;99.90
21592;DHT22;10958;50.892;3.992;2023-02-28T07:05:46;2.80;99.90
21592;DHT22;10958;50.892;3.992;2023-02-28T07:08:14;2.60;99.90
21592;DHT22;10958;50.892;3.992;2023-02-28T07:10:40;2.50;99.90
21592;DHT22;10958;50.892;3.992;2023-02-28T07:13:07;2.50;99.90
21592;DHT22;10958;50.892;3.992;2023-02-28T07:15:34;2.60;99.90
21592;DHT22;10958;50.892;3.992;2023-02-28T07:18:00;2.60;99.90
21592;DHT22;10958;50.892;3.992;2023-02-28T07:20:25;2.60;99.90
21592;DHT22;10958;50.892;3.992;2023-02-28T07:22:51;2.50;99.90
21592;DHT22;10958;50.892;3.992;2023-02-28T07:25:30;2.50;99.90
21592;DHT22;10958;50.892;3.992;2023-02-28T07:27:57;2.70;99.90
21592;DHT22;10958;50.892;3.992;2023-02-28T07:30:24;2.80;99.90
21592;DHT22;10958;50.892;3.992;2023-02-28T07:32:50;2.80;99.90
21592;DHT22;10958;50.892;3.992;2023-02-28T07:35:16;2.80;99.90
21592;DHT22;10958;50.892;3.992;2023-02-28T07:37:42;2.80;99.90
21592;DHT22;10958;50.892;3.992;2023-02-28T07:40:10;2.70;99.90
21592;DHT22;10958;50.892;3.992;2023-02-28T07:42:39;2.90;99.90
21592;DHT22;10958;50.892;3.992;2023-02-28T07:45:06;3.30;99.90
21592;DHT22;10958;50.892;3.992;2023-02-28T07:47:32;3.50;99.90
21592;DHT22;10958;50.892;3.992;2023-02-28T07:50:00;3.60;99.90
21592;DHT22;10958;50.892;3.992;2023-02-28T07:52:26;3.70;99.90
21592;DHT22;10958;50.892;3.992;2023-02-28T07:54:51;3.50;99.90
21592;DHT22;10958;50.892;3.992;2023-02-28T07:57:18;3.50;99.90
21592;DHT22;10958;50.892;3.992;2023-02-28T07:59:43;3.50;99.90
21592;DHT22;10958;50.892;3.992;2023-02-28T08:02:14;3.70;99.90
21592;DHT22;10958;50.892;3.992;2023-02-28T08:04:40;3.90;99.90
21592;DHT22;10958;50.892;3.992;2023-02-28T08:07:06;3.80;99.90
21592;DHT22;10958;50.892;3.992;2023-02-28T08:09:32;3.40;99.90
21592;DHT22;10958;50.892;3.992;2023-02-28T08:11:58;3.50;99.90
21592;DHT22;10958;50.892;3.992;2023-02-28T08:14:26;3.70;99.90
21592;DHT22;10958;50.892;3.992;2023-02-28T08:16:52;3.90;99.90
21592;DHT22;10958;50.892;3.992;2023-02-28T08:19:19;3.80;99.90
21592;DHT22;10958;50.892;3.992;2023-02-28T08:21:44;3.70;99.90
21592;DHT22;10958;50.892;3.992;2023-02-28T08:24:10;3.70;99.90
21592;DHT22;10958;50.892;3.992;2023-02-28T08:26:36;3.70;99.90
21592;DHT22;10958;50.892;3.992;2023-02-28T08:29:04;3.50;99.90
21592;DHT22;10958;50.892;3.992;2023-02-28T08:31:29;3.50;99.90
21592;DHT22;10958;50.892;3.992;2023-02-28T08:33:55;3.40;99.90
21592;DHT22;10958;50.892;3.992;2023-02-28T08:36:24;3.50;99.90
21592;DHT22;10958;50.892;3.992;2023-02-28T08:38:52;3.50;99.90
21592;DHT22;10958;50.892;3.992;2023-02-28T08:41:18;3.40;99.90
21592;DHT22;10958;50.892;3.992;2023-02-28T08:43:44;3.50;99.90
21592;DHT22;10958;50.892;3.992;2023-02-28T08:46:15;3.50;99.90
21592;DHT22;10958;50.892;3.992;2023-02-28T08:48:41;3.40;99.90
21592;DHT22;10958;50.892;3.992;2023-02-28T08:51:13;3.60;99.90
21592;DHT22;10958;50.892;3.992;2023-02-28T08:53:40;3.60;99.90
21592;DHT22;10958;50.892;3.992;2023-02-28T08:56:11;3.60;99.90
21592;DHT22;10958;50.892;3.992;2023-02-28T08:58:37;3.50;99.90
21592;DHT22;10958;50.892;3.992;2023-02-28T09:01:14;3.50;99.90
21592;DHT22;10958;50.892;3.992;2023-02-28T09:03:41;3.60;99.90
21592;DHT22;10958;50.892;3.992;2023-02-28T09:06:09;3.60;99.90
21592;DHT22;10958;50.892;3.992;2023-02-28T09:08:38;3.50;99.90
21592;DHT22;10958;50.892;3.992;2023-02-28T09:11:04;3.60;99.90
21592;DHT22;10958;50.892;3.992;2023-02-28T09:13:30;3.70;99.90
21592;DHT22;10958;50.892;3.992;2023-02-28T09:15:58;3.80;99.90
21592;DHT22;10958;50.892;3.992;2023-02-28T09:18:25;3.90;99.90
21592;DHT22;10958;50.892;3.992;2023-02-28T09:20:51;4.10;99.90
21592;DHT22;10958;50.892;3.992;2023-02-28T09:23:17;3.90;99.90
21592;DHT22;10958;50.892;3.992;2023-02-28T09:28:13;4.10;99.90
21592;DHT22;10958;50.892;3.992;2023-02-28T09:30:41;4.10;99.90
21592;DHT22;10958;50.892;3.992;2023-02-28T09:33:07;4.10;99.90
21592;DHT22;10958;50.892;3.992;2023-02-28T09:35:35;4.10;99.90
21592;DHT22;10958;50.892;3.992;2023-02-28T09:38:02;3.80;99.90
21592;DHT22;10958;50.892;3.992;2023-02-28T09:40:29;3.80;99.90
21592;DHT22;10958;50.892;3.992;2023-02-28T09:42:57;4.20;99.90
21592;DHT22;10958;50.892;3.992;2023-02-28T09:45:32;4.40;99.90
21592;DHT22;10958;50.892;3.992;2023-02-28T09:48:20;4.70;99.90
21592;DHT22;10958;50.892;3.992;2023-02-28T09:51:03;4.70;99.90
21592;DHT22;10958;50.892;3.992;2023-02-28T09:53:35;5.00;99.90
21592;DHT22;10958;50.892;3.992;2023-02-28T09:56:18;5.00;99.90
21592;DHT22;10958;50.892;3.992;2023-02-28T09:58:57;5.00;99.90
21592;DHT22;10958;50.892;3.992;2023-02-28T10:01:31;4.90;99.90
21592;DHT22;10958;50.892;3.992;2023-02-28T10:04:12;5.40;99.90
21592;DHT22;10958;50.892;3.992;2023-02-28T10:06:48;5.70;99.90
21592;DHT22;10958;50.892;3.992;2023-02-28T10:09:26;5.60;99.90
21592;DHT22;10958;50.892;3.992;2023-02-28T10:11:56;5.70;99.90
21592;DHT22;10958;50.892;3.992;2023-02-28T10:14:28;6.00;99.90
21592;DHT22;10958;50.892;3.992;2023-02-28T10:17:08;5.60;99.90
21592;DHT22;10958;50.892;3.992;2023-02-28T10:22:19;5.80;99.90
21592;DHT22;10958;50.892;3.992;2023-02-28T10:24:52;5.70;99.90
21592;DHT22;10958;50.892;3.992;2023-02-28T10:27:22;6.10;99.90
21592;DHT22;10958;50.892;3.992;2023-02-28T10:29:56;5.70;99.90
21592;DHT22;10958;50.892;3.992;2023-02-28T10:32:31;5.70;99.90
21592;DHT22;10958;50.892;3.992;2023-02-28T10:37:38;5.90;99.90
21592;DHT22;10958;50.892;3.992;2023-02-28T10:40:27;6.00;99.90
21592;DHT22;10958;50.892;3.992;2023-02-28T10:42:59;5.80;99.90
21592;DHT22;10958;50.892;3.992;2023-02-28T10:45:26;5.70;99.90
21592;DHT22;10958;50.892;3.992;2023-02-28T10:47:56;5.60;99.90
21592;DHT22;10958;50.892;3.992;2023-02-28T10:52:54;5.40;99.90
21592;DHT22;10958;50.892;3.992;2023-02-28T10:55:22;5.10;99.90
21592;DHT22;10958;50.892;3.992;2023-02-28T10:57:49;5.10;99.90
21592;DHT22;10958;50.892;3.992;2023-02-28T11:03:35;5.10;99.90
21592;DHT22;10958;50.892;3.992;2023-02-28T11:06:07;5.10;99.90
21592;DHT22;10958;50.892;3.992;2023-02-28T11:08:34;5.10;99.90
21592;DHT22;10958;50.892;3.992;2023-02-28T11:11:04;5.00;99.90
21592;DHT22;10958;50.892;3.992;2023-02-28T11:13:35;5.10;99.90
21592;DHT22;10958;50.892;3.992;2023-02-28T11:16:09;5.00;99.90
21592;DHT22;10958;50.892;3.992;2023-02-28T11:18:52;5.00;99.90
21592;DHT22;10958;50.892;3.992;2023-02-28T11:21:33;4.90;99.90
21592;DHT22;10958;50.892;3.992;2023-02-28T11:26:48;5.20;99.90
21592;DHT22;10958;50.892;3.992;2023-02-28T11:29:25;5.20;99.90
21592;DHT22;10958;50.892;3.992;2023-02-28T11:32:18;5.20;99.90
21592;DHT22;10958;50.892;3.992;2023-02-28T11:34:45;5.30;99.90
21592;DHT22;10958;50.892;3.992;2023-02-28T11:37:17;5.20;99.90
21592;DHT22;10958;50.892;3.992;2023-02-28T11:39:44;5.00;99.90
21592;DHT22;10958;50.892;3.992;2023-02-28T11:42:23;5.00;99.90
21592;DHT22;10958;50.892;3.992;2023-02-28T11:45:18;4.90;99.90
21592;DHT22;10958;50.892;3.992;2023-02-28T11:53:43;5.20;99.90
21592;DHT22;10958;50.892;3.992;2023-02-28T11:56:39;5.00;99.90
21592;DHT22;10958;50.892;3.992;2023-02-28T12:07:46;5.30;99.90
21592;DHT22;10958;50.892;3.992;2023-02-28T12:21:05;5.30;99.90
21592;DHT22;10958;50.892;3.992;2023-02-28T12:24:01;5.30;99.90
21592;DHT22;10958;50.892;3.992;2023-02-28T12:29:35;5.50;99.90
21592;DHT22;10958;50.892;3.992;2023-02-28T12:32:09;5.50;99.90
21592;DHT22;10958;50.892;3.992;2023-02-28T12:34:41;5.60;99.90
21592;DHT22;10958;50.892;3.992;2023-02-28T12:37:13;5.60;99.90
21592;DHT22;10958;50.892;3.992;2023-02-28T12:39:46;5.40;99.90
21592;DHT22;10958;50.892;3.992;2023-02-28T12:42:19;5.50;99.90
21592;DHT22;10958;50.892;3.992;2023-02-28T12:44:59;5.40;99.90
21592;DHT22;10958;50.892;3.992;2023-02-28T12:47:26;5.60;99.90
21592;DHT22;10958;50.892;3.992;2023-02-28T12:50:10;5.80;99.90
21592;DHT22;10958;50.892;3.992;2023-02-28T12:55:33;5.60;99.90
21592;DHT22;10958;50.892;3.992;2023-02-28T13:10:04;5.20;99.90
21592;DHT22;10958;50.892;3.992;2023-02-28T13:12:31;5.40;99.90
21592;DHT22;10958;50.892;3.992;2023-02-28T13:15:22;5.40;99.90
21592;DHT22;10958;50.892;3.992;2023-02-28T13:17:55;5.40;99.90
21592;DHT22;10958;50.892;3.992;2023-02-28T13:20:24;5.40;99.90
21592;DHT22;10958;50.892;3.992;2023-02-28T13:22:53;5.60;99.90
21592;DHT22;10958;50.892;3.992;2023-02-28T13:27:56;5.70;99.90
21592;DHT22;10958;50.892;3.992;2023-02-28T13:38:51;5.60;99.90
21592;DHT22;10958;50.892;3.992;2023-02-28T13:46:25;5.70;99.90
21592;DHT22;10958;50.892;3.992;2023-02-28T13:48:50;5.80;99.90
21592;DHT22;10958;50.892;3.992;2023-02-28T13:51:39;5.80;99.90
21592;DHT22;10958;50.892;3.992;2023-02-28T14:06:10;5.80;99.90
21592;DHT22;10958;50.892;3.992;2023-02-28T14:11:38;5.70;99.90
21592;DHT22;10958;50.892;3.992;2023-02-28T14:14:06;5.70;99.90
21592;DHT22;10958;50.892;3.992;2023-02-28T14:16:45;5.80;99.90
21592;DHT22;10958;50.892;3.992;2023-02-28T14:19:36;5.80;99.90
21592;DHT22;10958;50.892;3.992;2023-02-28T14:25:53;5.80;99.90
21592;DHT22;10958;50.892;3.992;2023-02-28T14:37:00;5.50;99.90
21592;DHT22;10958;50.892;3.992;2023-02-28T14:39:27;5.50;99.90
21592;DHT22;10958;50.892;3.992;2023-02-28T14:41:56;5.50;99.90
21592;DHT22;10958;50.892;3.992;2023-02-28T14:44:27;5.50;99.90
21592;DHT22;10958;50.892;3.992;2023-02-28T14:47:03;5.60;99.90
21592;DHT22;10958;50.892;3.992;2023-02-28T14:49:36;5.60;99.90
21592;DHT22;10958;50.892;3.992;2023-02-28T14:54:36;5.40;99.90
21592;DHT22;10958;50.892;3.992;2023-02-28T14:57:03;5.40;99.90
21592;DHT22;10958;50.892;3.992;2023-02-28T14:59:33;5.50;99.90
21592;DHT22;10958;50.892;3.992;2023-02-28T15:02:21;5.60;99.90
21592;DHT22;10958;50.892;3.992;2023-02-28T15:04:59;5.60;99.90
21592;DHT22;10958;50.892;3.992;2023-02-28T15:07:28;5.60;99.90
21592;DHT22;10958;50.892;3.992;2023-02-28T15:10:22;5.60;99.90
21592;DHT22;10958;50.892;3.992;2023-02-28T15:13:02;5.60;99.90
21592;DHT22;10958;50.892;3.992;2023-02-28T15:15:40;5.70;99.90
21592;DHT22;10958;50.892;3.992;2023-02-28T15:18:13;5.70;99.90
21592;DHT22;10958;50.892;3.992;2023-02-28T15:20:43;5.70;99.90
21592;DHT22;10958;50.892;3.992;2023-02-28T15:23:10;5.50;99.90
21592;DHT22;10958;50.892;3.992;2023-02-28T15:25:36;5.40;99.90
21592;DHT22;10958;50.892;3.992;2023-02-28T15:28:02;5.50;99.90
21592;DHT22;10958;50.892;3.992;2023-02-28T15:30:29;5.50;99.90
21592;DHT22;10958;50.892;3.992;2023-02-28T15:35:38;5.40;99.90
21592;DHT22;10958;50.892;3.992;2023-02-28T15:38:23;5.30;99.90
21592;DHT22;10958;50.892;3.992;2023-02-28T15:40:52;5.30;99.90
21592;DHT22;10958;50.892;3.992;2023-02-28T15:43:32;5.40;99.90
21592;DHT22;10958;50.892;3.992;2023-02-28T15:46:04;5.40;99.90
21592;DHT22;10958;50.892;3.992;2023-02-28T15:48:34;5.40;99.90
21592;DHT22;10958;50.892;3.992;2023-02-28T15:53:41;5.20;99.90
21592;DHT22;10958;50.892;3.992;2023-02-28T15:56:24;5.30;99.90
21592;DHT22;10958;50.892;3.992;2023-02-28T15:58:56;5.30;99.90
21592;DHT22;10958;50.892;3.992;2023-02-28T16:03:54;5.10;99.90
21592;DHT22;10958;50.892;3.992;2023-02-28T16:06:38;5.00;99.90
21592;DHT22;10958;50.892;3.992;2023-02-28T16:09:08;5.00;99.90
21592;DHT22;10958;50.892;3.992;2023-02-28T16:11:44;4.90;99.90
21592;DHT22;10958;50.892;3.992;2023-02-28T16:14:18;4.90;99.90
21592;DHT22;10958;50.892;3.992;2023-02-28T16:16:46;4.80;99.90
21592;DHT22;10958;50.892;3.992;2023-02-28T16:19:15;4.90;99.90
21592;DHT22;10958;50.892;3.992;2023-02-28T16:21:42;4.90;99.90
21592;DHT22;10958;50.892;3.992;2023-02-28T16:24:07;4.80;99.90
21592;DHT22;10958;50.892;3.992;2023-02-28T16:26:33;4.90;99.90
21592;DHT22;10958;50.892;3.992;2023-02-28T16:29:01;4.80;99.90
21592;DHT22;10958;50.892;3.992;2023-02-28T16:31:27;4.80;99.90
21592;DHT22;10958;50.892;3.992;2023-02-28T16:33:53;4.80;99.90
21592;DHT22;10958;50.892;3.992;2023-02-28T16:36:21;4.80;99.90
21592;DHT22;10958;50.892;3.992;2023-02-28T16:38:48;4.80;99.90
21592;DHT22;10958;50.892;3.992;2023-02-28T16:41:22;4.90;99.90
21592;DHT22;10958;50.892;3.992;2023-02-28T16:43:52;4.70;99.90
21592;DHT22;10958;50.892;3.992;2023-02-28T16:46:19;4.70;99.90
21592;DHT22;10958;50.892;3.992;2023-02-28T16:48:48;4.60;99.90
21592;DHT22;10958;50.892;3.992;2023-02-28T16:51:17;4.60;99.90
21592;DHT22;10958;50.892;3.992;2023-02-28T16:53:43;4.60;99.90
21592;DHT22;10958;50.892;3.992;2023-02-28T16:56:16;4.50;99.90
21592;DHT22;10958;50.892;3.992;2023-02-28T16:58:42;4.60;99.90
21592;DHT22;10958;50.892;3.992;2023-02-28T17:01:08;4.60;99.90
21592;DHT22;10958;50.892;3.992;2023-02-28T17:03:33;4.50;99.90
21592;DHT22;10958;50.892;3.992;2023-02-28T17:06:01;4.40;99.90
21592;DHT22;10958;50.892;3.992;2023-02-28T17:08:27;4.40;99.90
21592;DHT22;10958;50.892;3.992;2023-02-28T17:10:54;4.30;99.90
21592;DHT22;10958;50.892;3.992;2023-02-28T17:13:20;4.40;99.90
21592;DHT22;10958;50.892;3.992;2023-02-28T17:15:46;4.30;99.90
21592;DHT22;10958;50.892;3.992;2023-02-28T17:18:15;4.30;99.90
21592;DHT22;10958;50.892;3.992;2023-02-28T17:20:42;4.20;99.90
21592;DHT22;10958;50.892;3.992;2023-02-28T17:23:09;4.00;99.90
21592;DHT22;10958;50.892;3.992;2023-02-28T17:25:36;4.20;99.90
21592;DHT22;10958;50.892;3.992;2023-02-28T17:28:02;4.20;99.90
21592;DHT22;10958;50.892;3.992;2023-02-28T17:30:28;4.30;99.90
21592;DHT22;10958;50.892;3.992;2023-02-28T17:32:55;4.10;99.90
21592;DHT22;10958;50.892;3.992;2023-02-28T17:35:23;4.20;99.90
21592;DHT22;10958;50.892;3.992;2023-02-28T17:37:49;4.10;99.90
21592;DHT22;10958;50.892;3.992;2023-02-28T17:40:22;4.00;99.90
21592;DHT22;10958;50.892;3.992;2023-02-28T17:42:48;3.90;99.90
21592;DHT22;10958;50.892;3.992;2023-02-28T17:45:15;3.80;99.90
21592;DHT22;10958;50.892;3.992;2023-02-28T17:47:46;3.90;99.90
21592;DHT22;10958;50.892;3.992;2023-02-28T17:50:15;3.80;99.90
21592;DHT22;10958;50.892;3.992;2023-02-28T17:52:41;3.70;99.90
21592;DHT22;10958;50.892;3.992;2023-02-28T17:55:08;3.50;99.90
21592;DHT22;10958;50.892;3.992;2023-02-28T17:57:34;3.70;99.90
21592;DHT22;10958;50.892;3.992;2023-02-28T17:59:59;3.90;99.90
21592;DHT22;10958;50.892;3.992;2023-02-28T18:02:25;4.00;99.90
21592;DHT22;10958;50.892;3.992;2023-02-28T18:04:52;4.10;99.90
21592;DHT22;10958;50.892;3.992;2023-02-28T18:07:19;4.20;99.90
21592;DHT22;10958;50.892;3.992;2023-02-28T18:09:45;4.20;99.90
21592;DHT22;10958;50.892;3.992;2023-02-28T18:12:11;4.10;99.90
21592;DHT22;10958;50.892;3.992;2023-02-28T18:14:37;4.20;99.90
21592;DHT22;10958;50.892;3.992;2023-02-28T18:17:02;4.30;99.90
21592;DHT22;10958;50.892;3.992;2023-02-28T18:19:28;4.30;99.90
21592;DHT22;10958;50.892;3.992;2023-02-28T18:21:54;4.10;99.90
21592;DHT22;10958;50.892;3.992;2023-02-28T18:24:21;4.00;99.90
21592;DHT22;10958;50.892;3.992;2023-02-28T18:26:47;4.10;99.90